Costa Do Sul — CUHA4 — position and weather

sailwx.info

Track history (hours):
 
Tides and Currents Weather Stations Pressure Air Temp Water Temp Dewpoint Dewpoint Depression Visibility Wind Speed Wind Dir Waves Ship Positions

Costa Do Sul

Last reported at 2017-Oct-14 00:38 UTC. Time now 2017-Oct-17 01:13 UTC.
Position N 36°57' W 007°53'.

Length 17 m.

Type: Fishing. MMSI: 263420270.

Date/timePositionNaut miles runAvg speedWind from/ knotsBaromVisibWave heightAir tempDewpointWater temp
2017-Oct-14 00:38N 36°57' W 007°53'1 5.6
2017-Oct-14 00:30N 36°57' W 007°54'3 5.0
2017-Oct-13 23:58N 36°57' W 007°57'0 0.1
2017-Oct-13 23:21N 36°57' W 007°57'2 0.1
2017-Oct-13 07:14N 36°58' W 007°58'3 7.6
2017-Oct-13 06:53N 36°58' W 008°02'3 7.8
2017-Oct-13 06:30N 36°58' W 008°05'3 5.5
2017-Oct-13 05:54N 36°57' W 008°09'1 0.7
2017-Oct-13 04:11N 36°56' W 008°08'0 0.6
2017-Oct-13 03:45N 36°56' W 008°08'0 0.6
2017-Oct-13 03:24N 36°56' W 008°08'0 0.3
2017-Oct-13 02:35N 36°56' W 008°08'0 0.2
2017-Oct-13 02:30N 36°56' W 008°08'3 0.1
2017-Oct-12 06:48N 36°58' W 008°06'2 1.3
2017-Oct-12 05:32N 36°57' W 008°06'0 0.5
2017-Oct-12 05:24N 36°57' W 008°06'0 0.5
2017-Oct-12 04:25N 36°56' W 008°06'1 0.9
2017-Oct-12 03:53N 36°57' W 008°06'1 3.3
2017-Oct-12 03:28N 36°58' W 008°05'4 3.5
2017-Oct-12 02:17N 36°59' W 008°10'3 6.7
2017-Oct-12 01:53N 37°02' W 008°10'15 0.3
2017-Oct-09 23:56N 36°57' W 007°53'4 8.3
2017-Oct-09 23:29N 36°57' W 007°58'0 0.8
2017-Oct-09 22:58N 36°56' W 007°58'0 0.2
2017-Oct-09 22:27N 36°57' W 007°58'0 0.3
2017-Oct-09 22:01N 36°57' W 007°58'1 1.1
2017-Oct-09 21:29N 36°57' W 007°57'10 4.3
2017-Oct-09 19:07N 36°60' W 007°45'1 7.9
2017-Oct-09 19:00N 36°60' W 007°44'0 0.8
2017-Oct-09 18:28N 37°00' W 007°44'  
2017-Oct-06 23:24N 36°57' W 007°57'0 0.1
2017-Oct-06 23:00N 36°57' W 007°57'0 0.4
2017-Oct-06 22:26N 36°57' W 007°57'0 0.3
2017-Oct-06 21:53N 36°57' W 007°57'  
Track history (hours):
 
Tides and Currents Weather Stations Pressure Air Temp Water Temp Dewpoint Dewpoint Depression Visibility Wind Speed Wind Dir Waves Ship Positions

Costa Do Sul

Last reported at 2017-Oct-14 00:38 UTC. Time now 2017-Oct-17 01:13 UTC.
Position N 36°57' W 007°53'.

Length 17 m.

Type: Fishing. MMSI: 263420270.

Date/timePositionNaut miles runAvg speedWind from/ knotsBaromVisibWave heightAir tempDewpointWater temp
2017-Oct-14 00:38N 36°57' W 007°53'1 5.6
2017-Oct-14 00:30N 36°57' W 007°54'3 5.0
2017-Oct-13 23:58N 36°57' W 007°57'0 0.1
2017-Oct-13 23:21N 36°57' W 007°57'2 0.1
2017-Oct-13 07:14N 36°58' W 007°58'3 7.6
2017-Oct-13 06:53N 36°58' W 008°02'3 7.8
2017-Oct-13 06:30N 36°58' W 008°05'3 5.5
2017-Oct-13 05:54N 36°57' W 008°09'1 0.7
2017-Oct-13 04:11N 36°56' W 008°08'0 0.6
2017-Oct-13 03:45N 36°56' W 008°08'0 0.6
2017-Oct-13 03:24N 36°56' W 008°08'0 0.3
2017-Oct-13 02:35N 36°56' W 008°08'0 0.2
2017-Oct-13 02:30N 36°56' W 008°08'3 0.1
2017-Oct-12 06:48N 36°58' W 008°06'2 1.3
2017-Oct-12 05:32N 36°57' W 008°06'0 0.5
2017-Oct-12 05:24N 36°57' W 008°06'0 0.5
2017-Oct-12 04:25N 36°56' W 008°06'1 0.9
2017-Oct-12 03:53N 36°57' W 008°06'1 3.3
2017-Oct-12 03:28N 36°58' W 008°05'4 3.5
2017-Oct-12 02:17N 36°59' W 008°10'3 6.7
2017-Oct-12 01:53N 37°02' W 008°10'15 0.3
2017-Oct-09 23:56N 36°57' W 007°53'4 8.3
2017-Oct-09 23:29N 36°57' W 007°58'0 0.8
2017-Oct-09 22:58N 36°56' W 007°58'0 0.2
2017-Oct-09 22:27N 36°57' W 007°58'0 0.3
2017-Oct-09 22:01N 36°57' W 007°58'1 1.1
2017-Oct-09 21:29N 36°57' W 007°57'10 4.3
2017-Oct-09 19:07N 36°60' W 007°45'1 7.9
2017-Oct-09 19:00N 36°60' W 007°44'0 0.8
2017-Oct-09 18:28N 37°00' W 007°44'  
2017-Oct-06 23:24N 36°57' W 007°57'0 0.1
2017-Oct-06 23:00N 36°57' W 007°57'0 0.4
2017-Oct-06 22:26N 36°57' W 007°57'0 0.3
2017-Oct-06 21:53N 36°57' W 007°57'  

Dump ship's entire track history